Cudworth, Canada
Current Conditions -  °F | °C
As of 1:00 AM on Friday 24 Oct 2014 (Local Time) from CYXE Reporting Station
Broken Clouds Broken Clouds  
Wind Chill: 45°   Ceiling: 22000
Heat Index: 45°   Visibility: 15mi
Dew Point: 37°   Wind: 3mph
Humidity: 76%   Direction: 300°WNW
Pressure: 29.56"   Gusts: NA
Location:  52.48°N, 105.72°W
Report Text: CYXE 240700Z 30003KT 15SM BKN220 07/03 A2956 RMK CI7 SLP025
Loading
Personal Weather Stations






























Interactive Weather Map
Tropical Storm Tracking
New forecast layout! Learn more

10-Day Weather Forecast

Advertisements
Track Severe Weather on mobile